createdAt,value
2018-02-27T00:01:01.722Z,-7.40
2018-02-27T00:03:27.930Z,-7.50
2018-02-27T00:05:54.959Z,-7.40
2018-02-27T00:08:21.172Z,-7.40
2018-02-27T00:10:47.383Z,-7.40
2018-02-27T00:13:13.608Z,-7.40
2018-02-27T00:15:39.822Z,-7.40
2018-02-27T00:18:06.026Z,-7.40
2018-02-27T00:20:33.004Z,-7.60
2018-02-27T00:22:59.176Z,-7.50
2018-02-27T00:25:26.051Z,-7.60
2018-02-27T00:27:52.208Z,-7.70
2018-02-27T00:30:18.373Z,-7.70
2018-02-27T00:32:45.269Z,-8.00
2018-02-27T00:35:11.411Z,-8.00
2018-02-27T00:37:37.570Z,-8.00
2018-02-27T00:40:03.809Z,-8.00
2018-02-27T00:42:30.775Z,-7.90
2018-02-27T00:44:56.989Z,-7.90
2018-02-27T00:47:23.976Z,-8.00
2018-02-27T00:49:50.109Z,-8.00
2018-02-27T00:52:16.307Z,-8.10
2018-02-27T00:54:42.460Z,-8.10
2018-02-27T00:57:08.626Z,-8.10
2018-02-27T00:59:34.822Z,-8.10
2018-02-27T01:02:00.952Z,-8.20
2018-02-27T01:04:27.160Z,-8.20
2018-02-27T01:06:53.389Z,-8.20
2018-02-27T01:09:19.631Z,-8.30
2018-02-27T01:11:45.873Z,-8.20
2018-02-27T01:14:12.074Z,-8.30
2018-02-27T01:16:38.288Z,-8.20
2018-02-27T01:19:04.421Z,-8.30
2018-02-27T01:21:30.632Z,-8.30
2018-02-27T01:23:56.819Z,-8.30
2018-02-27T01:26:22.989Z,-8.40
2018-02-27T01:28:49.114Z,-8.30
2018-02-27T01:31:15.293Z,-8.30
2018-02-27T01:33:41.529Z,-8.30
2018-02-27T01:36:07.694Z,-8.30
2018-02-27T01:38:33.844Z,-8.30
2018-02-27T01:41:00.083Z,-8.20
2018-02-27T01:43:26.385Z,-8.20
2018-02-27T01:45:52.558Z,-8.20
2018-02-27T01:48:18.754Z,-8.20
2018-02-27T01:50:45.039Z,-8.20
2018-02-27T01:53:11.979Z,-8.00
2018-02-27T01:55:38.896Z,-8.10
2018-02-27T01:58:05.116Z,-8.10
2018-02-27T02:00:31.274Z,-8.10
2018-02-27T02:02:57.514Z,-8.10
2018-02-27T02:05:24.418Z,-8.00
2018-02-27T02:07:50.588Z,-8.10
2018-02-27T02:10:17.467Z,-8.10
2018-02-27T02:12:43.614Z,-8.10
2018-02-27T02:15:09.890Z,-8.10
2018-02-27T02:17:36.843Z,-8.20
2018-02-27T02:20:03.751Z,-8.20
2018-02-27T02:22:29.948Z,-8.20
2018-02-27T02:24:56.120Z,-8.20
2018-02-27T02:27:22.318Z,-8.20
2018-02-27T02:29:48.543Z,-8.30
2018-02-27T02:32:14.784Z,-8.30
2018-02-27T02:34:41.044Z,-8.30
2018-02-27T02:37:07.946Z,-8.40
2018-02-27T02:39:34.102Z,-8.40
2018-02-27T02:44:59.335Z,-8.40
2018-02-27T02:47:26.204Z,-8.40
2018-02-27T02:49:52.430Z,-8.40
2018-02-27T02:52:18.618Z,-8.50
2018-02-27T02:54:44.800Z,-8.50
2018-02-27T02:57:11.241Z,-8.50
2018-02-27T02:59:37.396Z,-8.50
2018-02-27T03:02:03.520Z,-8.70
2018-02-27T03:04:29.673Z,-8.60
2018-02-27T03:06:56.590Z,-8.60
2018-02-27T03:09:22.806Z,-8.60
2018-02-27T03:11:48.956Z,-8.60
2018-02-27T03:14:15.219Z,-8.70
2018-02-27T03:16:41.364Z,-8.90
2018-02-27T03:19:07.526Z,-8.90
2018-02-27T03:21:33.775Z,-8.80
2018-02-27T03:24:00.002Z,-8.80
2018-02-27T03:26:26.195Z,-8.90
2018-02-27T03:28:52.421Z,-9.00
2018-02-27T03:31:18.668Z,-9.10
2018-02-27T03:33:44.846Z,-9.00
2018-02-27T03:36:11.734Z,-9.10
2018-02-27T03:38:37.896Z,-9.10
2018-02-27T03:41:04.804Z,-9.10
2018-02-27T03:43:31.043Z,-9.10
2018-02-27T03:45:57.272Z,-9.20
2018-02-27T03:48:23.445Z,-9.20
2018-02-27T03:50:49.568Z,-9.20
2018-02-27T03:53:15.769Z,-9.10
2018-02-27T03:55:41.934Z,-9.10
2018-02-27T03:58:08.078Z,-9.20
2018-02-27T04:00:34.236Z,-9.30
2018-02-27T04:03:00.443Z,-9.20
2018-02-27T04:05:26.644Z,-9.10
2018-02-27T04:07:52.880Z,-9.10
2018-02-27T04:10:19.084Z,-9.10
2018-02-27T04:12:46.027Z,-9.20
2018-02-27T04:15:12.218Z,-9.30
2018-02-27T04:17:38.454Z,-9.40
2018-02-27T04:20:04.619Z,-9.30
2018-02-27T04:22:30.739Z,-9.40
2018-02-27T04:24:56.933Z,-9.30
2018-02-27T04:27:23.112Z,-9.20
2018-02-27T04:29:49.300Z,-9.30
2018-02-27T04:32:15.488Z,-9.20
2018-02-27T04:34:41.663Z,-9.20
2018-02-27T04:37:08.577Z,-9.20
2018-02-27T04:39:34.790Z,-9.20
2018-02-27T04:42:00.949Z,-9.30
2018-02-27T04:44:27.886Z,-9.20
2018-02-27T04:46:54.065Z,-9.20
2018-02-27T04:49:20.239Z,-9.20
2018-02-27T04:51:46.436Z,-9.30
2018-02-27T04:54:12.579Z,-9.30
2018-02-27T04:56:38.735Z,-9.30
2018-02-27T04:59:05.678Z,-9.40
2018-02-27T05:01:32.599Z,-9.50
2018-02-27T05:03:58.765Z,-9.50
2018-02-27T05:06:25.731Z,-9.50
2018-02-27T05:08:51.908Z,-9.50
2018-02-27T05:11:18.835Z,-9.40
2018-02-27T05:13:45.057Z,-9.40
2018-02-27T05:16:11.278Z,-9.60
2018-02-27T05:18:37.479Z,-9.60
2018-02-27T05:21:03.718Z,-9.60
2018-02-27T05:23:29.858Z,-9.80
2018-02-27T05:25:56.091Z,-9.90
2018-02-27T05:28:22.284Z,-9.90
2018-02-27T05:30:48.495Z,-9.90
2018-02-27T05:33:15.377Z,-10.10
2018-02-27T05:35:41.517Z,-10.10
2018-02-27T05:38:07.692Z,-9.80
2018-02-27T05:40:34.632Z,-9.60
2018-02-27T05:43:01.658Z,-9.80
2018-02-27T05:45:27.829Z,-9.80
2018-02-27T05:47:54.035Z,-9.70
2018-02-27T05:50:20.970Z,-9.90
2018-02-27T05:52:47.903Z,-9.90
2018-02-27T05:55:14.174Z,-9.90
2018-02-27T05:57:40.335Z,-10.00
2018-02-27T06:00:06.551Z,-9.90
2018-02-27T06:02:32.783Z,-9.90
2018-02-27T06:04:59.035Z,-9.80
2018-02-27T06:07:25.245Z,-9.70
2018-02-27T06:09:51.484Z,-9.70
2018-02-27T06:12:17.987Z,-9.70
2018-02-27T06:14:43.939Z,-9.70
2018-02-27T06:17:10.090Z,-10.00
2018-02-27T06:19:36.281Z,-10.00
2018-02-27T06:22:02.474Z,-10.00
2018-02-27T06:24:28.708Z,-9.80
2018-02-27T06:26:54.943Z,-9.80
2018-02-27T06:29:21.243Z,-9.80
2018-02-27T06:31:48.164Z,-9.90
2018-02-27T06:34:14.316Z,-9.90
2018-02-27T06:36:41.330Z,-9.80
2018-02-27T06:39:07.527Z,-9.80
2018-02-27T06:41:33.748Z,-9.80
2018-02-27T06:43:59.999Z,-9.80
2018-02-27T06:46:26.144Z,-9.80
2018-02-27T06:48:52.318Z,-9.70
2018-02-27T06:51:18.517Z,-9.90
2018-02-27T06:53:45.502Z,-9.70
2018-02-27T06:56:11.713Z,-9.70
2018-02-27T06:58:37.897Z,-9.50
2018-02-27T07:01:04.096Z,-9.70
2018-02-27T07:03:30.289Z,-9.60
2018-02-27T07:05:57.248Z,-9.10
2018-02-27T07:08:23.413Z,-9.10
2018-02-27T07:10:49.576Z,-9.00
2018-02-27T07:13:15.754Z,-9.10
2018-02-27T07:15:42.002Z,-9.10
2018-02-27T07:18:08.232Z,-8.90
2018-02-27T07:20:34.459Z,-9.00
2018-02-27T07:23:07.699Z,-8.80
2018-02-27T07:25:34.649Z,-8.60
2018-02-27T07:28:01.528Z,-8.30
2018-02-27T07:30:27.744Z,-8.40
2018-02-27T07:32:54.016Z,-8.40
2018-02-27T07:35:20.252Z,-8.40
2018-02-27T07:37:46.452Z,-8.50
2018-02-27T07:40:12.591Z,-8.30
2018-02-27T07:42:38.815Z,-8.30
2018-02-27T07:45:05.013Z,-8.30
2018-02-27T07:47:31.216Z,-8.10
2018-02-27T07:49:57.404Z,-7.90
2018-02-27T07:52:23.649Z,-7.90
2018-02-27T07:54:50.535Z,-7.80
2018-02-27T07:57:16.734Z,-7.90
2018-02-27T07:59:42.946Z,-7.60
2018-02-27T08:02:09.966Z,-7.90
2018-02-27T08:04:36.131Z,-7.90
2018-02-27T08:07:03.018Z,-8.00
2018-02-27T08:09:30.181Z,-8.00
2018-02-27T08:11:56.402Z,-7.80
2018-02-27T08:14:22.587Z,-8.30
2018-02-27T08:16:49.599Z,-7.50
2018-02-27T08:19:15.811Z,-7.50
2018-02-27T08:21:42.000Z,-7.00
2018-02-27T08:24:08.204Z,-7.10
2018-02-27T08:26:35.150Z,-6.60
2018-02-27T08:29:02.125Z,-7.20
2018-02-27T08:31:28.323Z,-7.20
2018-02-27T08:33:55.090Z,-7.30
2018-02-27T08:36:21.254Z,-7.10
2018-02-27T08:38:47.401Z,-6.90
2018-02-27T08:41:13.586Z,-7.00
2018-02-27T08:43:39.822Z,-6.70
2018-02-27T08:46:06.065Z,-6.50
2018-02-27T08:48:32.374Z,-6.60
2018-02-27T08:50:58.706Z,-7.10
2018-02-27T08:53:24.882Z,-6.70
2018-02-27T08:55:51.859Z,-6.30
2018-02-27T08:58:18.069Z,-6.30
2018-02-27T09:00:45.057Z,-6.20
2018-02-27T09:03:11.202Z,-6.20
2018-02-27T09:05:37.339Z,-6.10
2018-02-27T09:08:03.556Z,-5.60
2018-02-27T09:10:30.534Z,-5.70
2018-02-27T09:12:57.481Z,-5.20
2018-02-27T09:15:24.401Z,-4.50
2018-02-27T09:17:51.322Z,-4.50
2018-02-27T09:20:17.492Z,-4.50
2018-02-27T09:22:44.459Z,-4.20
2018-02-27T09:25:10.663Z,-4.20
2018-02-27T09:27:37.625Z,-4.90
2018-02-27T09:30:03.862Z,-4.90
2018-02-27T09:32:30.071Z,-4.40
2018-02-27T09:34:57.088Z,-4.00
2018-02-27T09:37:23.254Z,-4.00
2018-02-27T09:39:50.229Z,-4.20
2018-02-27T09:42:16.474Z,-4.20
2018-02-27T09:44:42.710Z,-3.80
2018-02-27T09:47:08.968Z,-3.70
2018-02-27T09:49:35.917Z,-3.60
2018-02-27T09:52:02.870Z,-2.90
2018-02-27T09:54:29.778Z,-3.10
2018-02-27T09:56:55.942Z,-3.10
2018-02-27T09:59:22.887Z,-2.50
2018-02-27T10:01:49.773Z,-2.50
2018-02-27T10:04:16.052Z,-2.50
2018-02-27T10:06:42.285Z,-2.20
2018-02-27T10:09:09.196Z,-2.20
2018-02-27T10:11:35.394Z,-2.20
2018-02-27T10:14:01.550Z,-1.80
2018-02-27T10:16:27.760Z,-2.20
2018-02-27T10:18:53.909Z,-2.20
2018-02-27T10:21:20.199Z,-2.20
2018-02-27T10:23:46.335Z,-1.80
2018-02-27T10:26:12.539Z,-1.70
2018-02-27T10:28:39.560Z,-1.50
2018-02-27T10:31:06.481Z,-1.10
2018-02-27T10:33:32.645Z,-1.10
2018-02-27T10:35:59.838Z,-2.90
2018-02-27T10:38:26.013Z,-2.90
2018-02-27T10:40:52.162Z,-1.80
2018-02-27T10:43:18.405Z,-1.00
2018-02-27T10:45:44.542Z,-0.70
2018-02-27T10:48:10.755Z,-0.60
2018-02-27T10:50:36.991Z,-2.30
2018-02-27T10:53:03.128Z,-1.90
2018-02-27T10:55:29.335Z,-1.10
2018-02-27T10:57:55.708Z,-1.10
2018-02-27T11:00:27.930Z,-1.00
2018-02-27T11:02:54.176Z,-0.80
2018-02-27T11:05:20.335Z,-1.10
2018-02-27T11:07:46.493Z,-1.50
2018-02-27T11:10:13.387Z,-1.60
2018-02-27T11:12:39.562Z,-1.70
2018-02-27T11:15:06.485Z,-0.60
2018-02-27T11:17:32.661Z,-0.70
2018-02-27T11:19:58.868Z,-1.30
2018-02-27T11:22:25.891Z,-0.60
2018-02-27T11:24:52.815Z,-0.60
2018-02-27T11:27:19.041Z,-0.60
2018-02-27T11:29:45.262Z,-0.50
2018-02-27T11:32:11.459Z,-0.20
2018-02-27T11:34:37.636Z,0.10
2018-02-27T11:37:03.792Z,-0.20
2018-02-27T11:39:30.690Z,0.00
2018-02-27T11:41:56.891Z,0.00
2018-02-27T11:44:23.075Z,0.30
2018-02-27T11:46:50.063Z,0.50
2018-02-27T11:49:16.293Z,0.50
2018-02-27T11:51:42.524Z,-0.20
2018-02-27T11:54:08.668Z,-0.30
2018-02-27T11:56:34.811Z,0.00
2018-02-27T11:59:00.983Z,0.40
2018-02-27T12:01:27.184Z,0.50
2018-02-27T12:03:54.114Z,0.60
2018-02-27T12:06:20.306Z,0.60
2018-02-27T12:08:46.475Z,-0.60
2018-02-27T12:11:12.612Z,-0.40
2018-02-27T12:13:39.581Z,0.70
2018-02-27T12:16:06.449Z,0.90
2018-02-27T12:18:32.601Z,0.80
2018-02-27T12:20:58.732Z,1.10
2018-02-27T12:23:24.943Z,0.70
2018-02-27T12:25:51.076Z,0.60
2018-02-27T12:28:17.286Z,0.10
2018-02-27T12:30:43.465Z,0.60
2018-02-27T12:33:10.387Z,1.40
2018-02-27T12:35:36.583Z,1.40
2018-02-27T12:38:02.748Z,1.50
2018-02-27T12:40:28.936Z,1.30
2018-02-27T12:42:55.132Z,1.30
2018-02-27T12:45:22.032Z,1.20
2018-02-27T12:47:48.289Z,1.20
2018-02-27T12:50:14.521Z,1.20
2018-02-27T12:52:41.446Z,1.50
2018-02-27T12:55:07.688Z,1.50
2018-02-27T12:57:34.667Z,1.90
2018-02-27T13:00:00.850Z,1.90
2018-02-27T13:02:27.087Z,1.60
2018-02-27T13:04:54.027Z,1.40
2018-02-27T13:07:20.151Z,1.50
2018-02-27T13:09:46.296Z,1.70
2018-02-27T13:12:13.217Z,1.40
2018-02-27T13:14:39.431Z,1.40
2018-02-27T13:17:05.662Z,1.30
2018-02-27T13:19:31.836Z,1.10
2018-02-27T13:21:58.737Z,1.10
2018-02-27T13:24:24.945Z,1.10
2018-02-27T13:26:51.120Z,1.10
2018-02-27T13:29:17.295Z,0.90
2018-02-27T13:31:43.415Z,0.90
2018-02-27T13:34:09.613Z,0.70
2018-02-27T13:36:36.469Z,0.40
2018-02-27T13:39:02.668Z,0.40
2018-02-27T13:41:29.603Z,0.50
2018-02-27T13:43:56.548Z,0.60
2018-02-27T13:46:22.728Z,0.50
2018-02-27T13:48:48.934Z,0.90
2018-02-27T13:51:15.161Z,1.20
2018-02-27T13:53:42.072Z,1.00
2018-02-27T13:56:09.003Z,0.80
2018-02-27T13:58:35.228Z,0.80
2018-02-27T14:01:01.439Z,0.90
2018-02-27T14:03:27.585Z,1.20
2018-02-27T14:05:53.741Z,1.30
2018-02-27T14:08:19.920Z,1.50
2018-02-27T14:10:46.097Z,1.70
2018-02-27T14:13:12.273Z,1.80
2018-02-27T14:15:38.419Z,1.80
2018-02-27T14:18:04.588Z,1.10
2018-02-27T14:20:31.492Z,0.60
2018-02-27T14:22:57.686Z,0.60
2018-02-27T14:25:23.948Z,0.40
2018-02-27T14:27:50.203Z,0.60
2018-02-27T14:30:17.192Z,1.80
2018-02-27T14:32:43.372Z,1.80
2018-02-27T14:35:09.550Z,3.30
2018-02-27T14:37:35.748Z,3.00
2018-02-27T14:40:02.712Z,0.90
2018-02-27T14:42:28.847Z,0.90
2018-02-27T14:44:54.979Z,1.50
2018-02-27T14:47:21.207Z,1.90
2018-02-27T14:49:47.443Z,3.70
2018-02-27T14:52:13.668Z,5.20
2018-02-27T14:54:39.866Z,5.70
2018-02-27T14:57:06.038Z,5.70
2018-02-27T14:59:32.198Z,6.20
2018-02-27T15:01:59.082Z,6.30
2018-02-27T15:04:25.248Z,6.30
2018-02-27T15:06:52.175Z,6.30
2018-02-27T15:09:18.337Z,6.30
2018-02-27T15:11:45.242Z,4.70
2018-02-27T15:14:11.449Z,4.70
2018-02-27T15:16:37.646Z,4.90
2018-02-27T15:19:04.519Z,3.40
2018-02-27T15:21:30.687Z,3.40
2018-02-27T15:23:56.843Z,3.00
2018-02-27T15:26:23.758Z,3.60
2018-02-27T15:28:50.012Z,3.60
2018-02-27T15:31:16.932Z,2.30
2018-02-27T15:33:43.154Z,2.30
2018-02-27T15:36:10.160Z,1.90
2018-02-27T15:38:36.346Z,1.80
2018-02-27T15:41:02.513Z,2.00
2018-02-27T15:43:28.712Z,1.50
2018-02-27T15:45:54.884Z,1.60
2018-02-27T15:48:21.070Z,1.40
2018-02-27T15:50:47.997Z,0.50
2018-02-27T15:53:14.928Z,-0.30
2018-02-27T15:55:41.134Z,-0.30
2018-02-27T15:58:07.323Z,-0.70
2018-02-27T16:00:34.233Z,-1.50
2018-02-27T16:03:00.417Z,-1.50
2018-02-27T16:05:26.675Z,-1.60
2018-02-27T16:07:52.906Z,-1.80
2018-02-27T16:10:19.100Z,-1.90
2018-02-27T16:12:45.285Z,-2.20
2018-02-27T16:15:12.180Z,-2.50
2018-02-27T16:17:38.374Z,-2.60
2018-02-27T16:20:05.278Z,-2.70
2018-02-27T16:22:31.498Z,-2.70
2018-02-27T16:24:57.676Z,-2.70
2018-02-27T16:27:23.909Z,-2.70
2018-02-27T16:29:50.133Z,-2.80
2018-02-27T16:32:17.012Z,-3.10
2018-02-27T16:34:43.148Z,-3.20
2018-02-27T16:37:09.333Z,-3.30
2018-02-27T16:39:35.546Z,-3.30
2018-02-27T16:42:02.523Z,-3.30
2018-02-27T16:44:28.742Z,-3.40
2018-02-27T16:46:54.964Z,-3.40
2018-02-27T16:49:21.148Z,-3.50
2018-02-27T16:51:47.459Z,-3.60
2018-02-27T16:54:13.624Z,-3.60
2018-02-27T16:56:39.796Z,-3.60
2018-02-27T16:59:06.159Z,-3.50
2018-02-27T17:01:32.360Z,-3.70
2018-02-27T17:03:58.563Z,-3.80
2018-02-27T17:06:24.904Z,-3.80
2018-02-27T17:08:51.115Z,-3.80
2018-02-27T17:11:18.028Z,-3.90
2018-02-27T17:13:44.283Z,-3.90
2018-02-27T17:16:11.202Z,-3.90
2018-02-27T17:18:37.346Z,-3.90
2018-02-27T17:21:04.234Z,-4.10
2018-02-27T17:23:30.383Z,-4.10
2018-02-27T17:25:56.505Z,-4.10
2018-02-27T17:28:22.732Z,-4.20
2018-02-27T17:30:48.882Z,-4.20
2018-02-27T17:33:15.070Z,-4.20
2018-02-27T17:35:41.316Z,-4.10
2018-02-27T17:38:07.542Z,-4.10
2018-02-27T17:40:33.775Z,-4.10
2018-02-27T17:43:00.021Z,-4.10
2018-02-27T17:45:26.986Z,-4.10
2018-02-27T17:47:53.920Z,-4.10
2018-02-27T17:50:20.789Z,-4.10
2018-02-27T17:52:47.716Z,-4.20
2018-02-27T17:55:13.910Z,-4.20
2018-02-27T17:57:40.117Z,-4.20
2018-02-27T18:00:06.339Z,-4.20
2018-02-27T18:02:32.518Z,-4.30
2018-02-27T18:04:58.725Z,-4.30
2018-02-27T18:07:24.971Z,-4.50
2018-02-27T18:09:51.176Z,-4.60
2018-02-27T18:12:17.379Z,-4.50
2018-02-27T18:14:43.548Z,-4.50
2018-02-27T18:17:09.758Z,-4.60
2018-02-27T18:19:35.967Z,-4.70
2018-02-27T18:22:02.188Z,-4.70
2018-02-27T18:24:28.428Z,-4.90
2018-02-27T18:26:54.567Z,-5.10
2018-02-27T18:29:20.709Z,-5.20
2018-02-27T18:31:46.888Z,-5.30
2018-02-27T18:34:13.041Z,-5.20
2018-02-27T18:36:39.506Z,-5.20
2018-02-27T18:39:05.644Z,-5.20
2018-02-27T18:41:32.567Z,-5.20
2018-02-27T18:43:58.934Z,-5.30
2018-02-27T18:46:25.055Z,-5.30
2018-02-27T18:48:51.252Z,-5.20
2018-02-27T18:51:17.392Z,-5.20
2018-02-27T18:53:44.316Z,-5.20
2018-02-27T18:56:10.549Z,-5.20
2018-02-27T18:58:36.692Z,-5.40
2018-02-27T19:01:03.635Z,-5.40
2018-02-27T19:03:30.674Z,-5.50
2018-02-27T19:05:56.956Z,-5.40
2018-02-27T19:08:23.171Z,-5.40
2018-02-27T19:10:51.251Z,-5.50
2018-02-27T19:13:21.204Z,-5.50
2018-02-27T19:15:47.470Z,-5.50
2018-02-27T19:18:14.425Z,-5.60
2018-02-27T19:20:40.589Z,-5.60
2018-02-27T19:23:06.820Z,-5.60
2018-02-27T19:25:33.047Z,-5.60
2018-02-27T19:27:59.205Z,-5.60
2018-02-27T19:30:25.412Z,-5.50
2018-02-27T19:32:51.667Z,-5.60
2018-02-27T19:35:18.649Z,-5.70
2018-02-27T19:37:44.888Z,-5.80
2018-02-27T19:40:11.101Z,-5.80
2018-02-27T19:42:37.266Z,-5.80
2018-02-27T19:45:03.487Z,-5.80
2018-02-27T19:47:29.671Z,-5.90
2018-02-27T19:49:55.878Z,-6.10
2018-02-27T19:52:22.103Z,-6.10
2018-02-27T19:54:48.347Z,-6.10
2018-02-27T19:57:15.299Z,-6.20
2018-02-27T19:59:41.557Z,-6.20
2018-02-27T20:02:07.919Z,-6.40
2018-02-27T20:04:34.148Z,-6.30
2018-02-27T20:07:00.483Z,-6.20
2018-02-27T20:09:27.478Z,-6.20
2018-02-27T20:11:53.723Z,-6.20
2018-02-27T20:14:26.169Z,-6.20
2018-02-27T20:16:53.135Z,-6.20
2018-02-27T20:19:20.011Z,-6.30
2018-02-27T20:21:46.199Z,-6.30
2018-02-27T20:24:18.348Z,-6.40
2018-02-27T20:26:45.285Z,-6.40
2018-02-27T20:29:18.231Z,-6.30
2018-02-27T20:31:44.439Z,-6.30
2018-02-27T20:34:10.616Z,-6.40
2018-02-27T20:36:36.788Z,-6.60
2018-02-27T20:39:09.209Z,-6.70
2018-02-27T20:41:35.390Z,-6.90
2018-02-27T20:44:01.592Z,-7.00
2018-02-27T20:46:28.522Z,-7.00
2018-02-27T20:48:54.748Z,-7.10
2018-02-27T20:51:21.723Z,-7.10
2018-02-27T20:53:47.871Z,-7.10
2018-02-27T20:56:14.013Z,-7.10
2018-02-27T20:58:40.296Z,-7.10
2018-02-27T21:01:06.561Z,-7.20
2018-02-27T21:03:32.823Z,-7.20
2018-02-27T21:05:59.075Z,-7.20
2018-02-27T21:08:26.145Z,-7.40
2018-02-27T21:10:52.428Z,-7.40
2018-02-27T21:13:18.656Z,-7.40
2018-02-27T21:15:44.859Z,-7.50
2018-02-27T21:18:11.126Z,-7.60
2018-02-27T21:20:38.131Z,-7.70
2018-02-27T21:23:04.451Z,-7.70
2018-02-27T21:25:30.654Z,-7.80
2018-02-27T21:27:56.852Z,-7.90
2018-02-27T21:30:23.114Z,-8.00
2018-02-27T21:32:49.975Z,-8.30
2018-02-27T21:35:16.344Z,-8.40
2018-02-27T21:37:42.559Z,-8.40
2018-02-27T21:40:08.744Z,-8.30
2018-02-27T21:42:34.973Z,-8.30
2018-02-27T21:45:01.152Z,-8.40
2018-02-27T21:47:27.269Z,-8.60
2018-02-27T21:49:53.448Z,-8.70
2018-02-27T21:52:19.652Z,-8.90
2018-02-27T21:54:46.591Z,-9.00
2018-02-27T21:57:13.557Z,-9.10
2018-02-27T21:59:40.501Z,-9.00
2018-02-27T22:02:07.381Z,-9.00
2018-02-27T22:04:33.525Z,-9.00
2018-02-27T22:06:59.703Z,-8.90
2018-02-27T22:09:26.646Z,-8.70
2018-02-27T22:11:53.538Z,-8.80
2018-02-27T22:14:19.742Z,-8.80
2018-02-27T22:16:45.977Z,-8.80
2018-02-27T22:19:12.246Z,-8.80
2018-02-27T22:21:38.378Z,-8.90
2018-02-27T22:24:04.561Z,-8.80
2018-02-27T22:26:30.716Z,-8.80
2018-02-27T22:28:56.897Z,-8.80
2018-02-27T22:31:23.037Z,-8.80
2018-02-27T22:33:49.186Z,-8.90
2018-02-27T22:36:15.384Z,-8.90
2018-02-27T22:38:41.534Z,-9.00
2018-02-27T22:41:07.726Z,-9.10
2018-02-27T22:43:33.918Z,-9.20
2018-02-27T22:46:00.886Z,-9.10
2018-02-27T22:48:27.856Z,-9.10
2018-02-27T22:50:54.028Z,-9.20
2018-02-27T22:53:20.165Z,-9.10
2018-02-27T22:55:46.340Z,-9.30
2018-02-27T22:58:12.534Z,-9.30
2018-02-27T23:00:39.490Z,-9.40
2018-02-27T23:03:06.542Z,-9.50
2018-02-27T23:05:32.718Z,-9.50
2018-02-27T23:07:58.972Z,-9.50
2018-02-27T23:10:32.926Z,-9.60
2018-02-27T23:12:59.133Z,-9.60
2018-02-27T23:15:26.044Z,-9.80
2018-02-27T23:17:52.261Z,-9.80
2018-02-27T23:20:18.452Z,-9.80
2018-02-27T23:22:44.604Z,-9.90
2018-02-27T23:25:20.033Z,-9.90
2018-02-27T23:27:51.594Z,-9.90
2018-02-27T23:30:19.936Z,-9.90
2018-02-27T23:32:47.848Z,-9.90
2018-02-27T23:35:23.649Z,-9.70
2018-02-27T23:37:50.651Z,-9.60
2018-02-27T23:40:16.928Z,-9.60
2018-02-27T23:42:43.876Z,-9.40
2018-02-27T23:45:10.125Z,-9.40
2018-02-27T23:47:36.326Z,-9.30
2018-02-27T23:50:03.244Z,-9.20
2018-02-27T23:52:29.394Z,-9.20
2018-02-27T23:54:56.321Z,-9.10
2018-02-27T23:57:22.457Z,-9.20
2018-02-27T23:59:48.629Z,-9.20
